Time;durP1;ratioP1;P1;durP2;ratioP2;P2;SDS_P1;SDS_P2;PMS_P1;PMS_P2;Temp;Humidity;BMP_temperature;BMP_pressure;BME280_temperature;BME280_humidity;BME280_pressure;Samples;Min_cycle;Max_cycle;Signal;HPM_P1;HPM_P2
2022/05/10 00:00:21;;;;;;;7.07;4.70;;;12.80;99.90;;;-141.84;63.71;18147.66;5093214;28;20297;-54
2022/05/10 00:02:53;;;;;;;6.67;4.70;;;12.70;99.90;;;-141.84;63.31;18123.28;5093240;28;20235;-52
2022/05/10 00:05:27;;;;;;;5.43;4.80;;;12.70;99.90;;;-141.84;63.14;18139.53;5091789;28;20240;-54
2022/05/10 00:07:56;;;;;;;5.70;4.30;;;12.70;99.90;;;-141.84;64.07;18086.72;5100317;28;20282;-54
2022/05/10 00:10:26;;;;;;;8.57;5.10;;;12.70;99.90;;;-141.84;65.13;18109.06;5113780;28;20286;-54
2022/05/10 00:12:54;;;;;;;6.87;4.80;;;12.60;99.90;;;-141.84;64.94;18072.50;5113276;28;20322;-54
2022/05/10 00:15:22;;;;;;;5.43;4.47;;;12.60;99.90;;;-141.84;65.79;18070.47;5113170;28;20311;-57
2022/05/10 00:17:51;;;;;;;6.70;4.83;;;12.50;99.90;;;-141.84;66.02;18058.28;5113137;28;20740;-52
2022/05/10 00:20:23;;;;;;;6.67;4.40;;;12.50;99.90;;;-141.84;66.90;18046.09;5113123;28;20223;-54
2022/05/10 00:22:51;;;;;;;5.10;4.37;;;12.40;99.90;;;-141.84;67.80;18037.97;5112931;28;20298;-54
2022/05/10 00:25:25;;;;;;;8.00;4.73;;;12.30;99.90;;;-141.84;68.15;18005.47;5113583;28;20299;-55
2022/05/10 00:27:56;;;;;;;6.60;4.33;;;12.30;99.90;;;-141.84;68.64;18011.56;5113212;28;20302;-53
2022/05/10 00:30:25;;;;;;;8.80;4.43;;;12.30;99.90;;;-141.84;68.47;18009.53;5113034;28;20222;-55
2022/05/10 00:32:53;;;;;;;6.70;4.43;;;12.30;99.90;;;-141.84;68.03;17997.34;5113198;28;20227;-53
2022/05/10 00:35:28;;;;;;;8.30;4.63;;;12.20;99.90;;;-141.84;68.08;17991.25;5112790;28;20227;-54
2022/05/10 00:38:00;;;;;;;6.97;4.53;;;12.30;99.90;;;-141.84;68.71;18009.53;5112962;28;20189;-57
2022/05/10 00:40:33;;;;;;;5.90;4.87;;;12.30;99.90;;;-141.84;68.26;18025.78;5113326;28;20192;-54
2022/05/10 00:43:17;;;;;;;6.23;4.83;;;12.30;99.90;;;-141.84;67.69;17975.00;5113050;28;20687;-52
2022/05/10 00:45:55;;;;;;;7.07;4.60;;;12.20;99.90;;;-141.84;68.18;17997.34;5112574;28;20215;-57
2022/05/10 00:48:33;;;;;;;8.20;4.40;;;12.30;99.90;;;-141.84;67.61;18017.66;5112745;28;20253;-56
2022/05/10 00:51:13;;;;;;;7.30;4.67;;;12.30;99.90;;;-141.84;68.51;18001.41;5112596;28;20223;-51
2022/05/10 00:53:56;;;;;;;8.97;5.03;;;12.20;99.90;;;-141.84;69.20;17975.00;5112770;28;20301;-55
2022/05/10 00:56:37;;;;;;;6.17;4.83;;;12.20;99.90;;;-141.84;69.39;17946.56;5112433;28;20219;-54
2022/05/10 00:59:16;;;;;;;7.17;4.53;;;12.10;99.90;;;-141.84;69.94;17940.47;5112359;28;20179;-54
2022/05/10 01:01:50;;;;;;;5.27;4.67;;;12.10;99.90;;;-141.84;70.86;17928.28;5113007;28;20274;-55
2022/05/10 01:04:27;;;;;;;5.73;4.47;;;12.10;99.90;;;-141.84;71.25;17960.78;5112738;28;20393;-58
2022/05/10 01:07:04;;;;;;;5.77;4.90;;;12.00;99.90;;;-141.84;71.08;17968.91;5112452;28;20254;-54
2022/05/10 01:09:43;;;;;;;8.10;5.50;;;12.00;99.90;;;-141.84;70.94;17938.44;5091717;28;20730;-54
2022/05/10 01:12:20;;;;;;;5.40;4.67;;;12.00;99.90;;;-141.84;71.25;17926.25;5091917;28;20621;-56
2022/05/10 01:14:57;;;;;;;5.80;4.87;;;12.00;99.90;;;-141.84;71.71;17895.75;5091841;28;20302;-56
2022/05/10 01:17:25;;;;;;;6.43;4.90;;;12.00;99.90;;;-141.84;71.94;17920.13;5100827;28;20313;-54
2022/05/10 01:19:53;;;;;;;5.70;4.17;;;12.00;99.90;;;-141.84;71.64;17920.13;5112309;28;20207;-56
2022/05/10 01:22:45;;;;;;;7.20;5.20;;;12.00;99.90;;;-141.84;70.93;17909.97;5112367;28;20207;-56
2022/05/10 01:25:37;;;;;;;7.70;5.20;;;11.90;99.90;;;-141.84;70.23;17942.50;5111820;28;20314;-54
2022/05/10 01:28:24;;;;;;;7.67;5.23;;;12.00;99.90;;;-141.84;70.50;17930.31;5111952;28;20223;-55
2022/05/10 01:30:52;;;;;;;7.73;5.27;;;12.00;99.90;;;-141.84;70.82;17940.47;5111753;28;20236;-53
2022/05/10 01:33:31;;;;;;;7.97;5.33;;;12.00;99.90;;;-141.84;70.65;17899.81;5111934;28;20686;-53
2022/05/10 01:36:18;;;;;;;7.30;5.17;;;12.00;99.90;;;-141.84;70.73;17928.28;5112241;28;20223;-56
2022/05/10 01:38:58;;;;;;;6.53;5.07;;;12.00;99.90;;;-141.84;70.62;17942.50;5111793;28;20767;-54
2022/05/10 01:41:45;;;;;;;6.47;4.90;;;11.90;99.90;;;-141.84;70.94;17920.13;5111403;28;20313;-55
2022/05/10 01:44:24;;;;;;;8.93;5.40;;;12.00;99.90;;;-141.84;71.38;17924.22;5111792;28;20718;-55
2022/05/10 01:47:03;;;;;;;9.20;5.30;;;11.90;99.90;;;-141.84;71.77;17926.25;5111747;28;20282;-56
2022/05/10 01:49:38;;;;;;;7.90;5.20;;;11.90;99.90;;;-141.84;71.65;17930.31;5112186;28;20271;-54
2022/05/10 01:52:17;;;;;;;6.90;5.57;;;11.90;99.90;;;-141.84;71.78;17920.13;5111382;28;20231;-58
2022/05/10 01:55:07;;;;;;;7.07;5.47;;;11.90;99.90;;;-141.84;71.83;17905.91;5111367;28;20700;-55
2022/05/10 01:57:39;;;;;;;7.37;5.17;;;11.80;99.90;;;-141.84;72.52;17879.50;5111269;28;20307;-54
2022/05/10 02:00:14;;;;;;;7.27;5.37;;;11.80;99.90;;;-141.84;71.67;17909.97;5111515;28;20345;-55
2022/05/10 02:02:50;;;;;;;7.40;5.40;;;11.80;99.90;;;-141.84;71.29;17889.66;5111157;28;20271;-56
2022/05/10 02:05:35;;;;;;;8.37;5.17;;;11.70;99.90;;;-141.84;71.08;17936.41;5111082;28;20684;-57
2022/05/10 02:08:17;;;;;;;9.17;5.23;;;11.80;99.90;;;-141.84;71.20;17893.72;5111086;28;20629;-56
2022/05/10 02:10:52;;;;;;;7.13;5.43;;;11.80;99.90;;;-141.84;71.50;17916.06;5111517;28;20670;-54
2022/05/10 02:13:29;;;;;;;7.87;5.60;;;11.80;99.90;;;-141.84;71.57;17907.94;5111395;28;20218;-56
2022/05/10 02:16:04;;;;;;;8.10;5.87;;;11.70;99.90;;;-141.84;71.60;17907.94;5110962;28;20223;-54
2022/05/10 02:18:45;;;;;;;8.07;5.87;;;11.80;99.90;;;-141.84;71.83;17909.97;5110957;28;20325;-54
2022/05/10 02:21:19;;;;;;;7.87;6.07;;;11.70;99.90;;;-141.84;71.78;17907.94;5111055;28;20233;-56
2022/05/10 02:23:55;;;;;;;7.20;5.23;;;11.70;99.90;;;-141.84;72.32;17907.94;5110524;28;20309;-52
2022/05/10 02:26:32;;;;;;;7.10;5.37;;;11.70;99.90;;;-141.84;72.87;17895.75;5110726;28;20329;-54
2022/05/10 02:29:09;;;;;;;8.20;5.70;;;11.70;99.90;;;-141.84;72.82;17903.88;5110245;28;20271;-55
2022/05/10 02:34:38;;;;;;;7.53;5.70;;;11.60;99.90;;;-141.84;73.38;17875.44;5111172;28;20285;-56
2022/05/10 02:37:06;;;;;;;6.53;5.50;;;11.60;99.90;;;-141.84;73.31;17905.91;5110482;28;20736;-55
2022/05/10 02:39:35;;;;;;;7.67;5.33;;;11.60;99.90;;;-141.84;74.22;17847.00;5110647;28;20247;-55
2022/05/10 02:42:09;;;;;;;11.13;5.50;;;11.50;99.90;;;-141.84;74.90;17842.94;5110728;28;20330;-54
2022/05/10 02:44:37;;;;;;;5.77;5.27;;;11.50;99.90;;;-141.84;74.43;17867.31;5110806;28;20223;-55
2022/05/10 02:47:09;;;;;;;7.70;5.50;;;11.40;99.90;;;-141.84;74.85;17830.75;5110988;28;20286;-54
2022/05/10 02:49:40;;;;;;;9.63;6.30;;;11.40;99.90;;;-141.84;74.99;17828.72;5111431;28;20186;-54
2022/05/10 02:52:08;;;;;;;8.17;5.67;;;11.40;99.90;;;-141.84;75.24;17863.25;5110349;28;20219;-56
2022/05/10 02:54:36;;;;;;;6.53;5.30;;;11.40;99.90;;;-141.84;75.48;17826.69;5110291;28;20225;-52
2022/05/10 02:57:05;;;;;;;7.27;5.53;;;11.40;99.90;;;-141.84;76.05;17802.31;5110482;28;20226;-54
2022/05/10 02:59:38;;;;;;;8.03;5.83;;;11.30;99.90;;;-141.84;76.62;17765.75;5110361;28;20793;-55
2022/05/10 03:02:15;;;;;;;6.70;5.77;;;11.30;99.90;;;-141.84;76.79;17838.88;5110801;28;20338;-56
2022/05/10 03:04:51;;;;;;;9.70;6.23;;;11.20;99.90;;;-141.84;75.56;17818.56;5110983;28;20207;-54
2022/05/10 03:07:20;;;;;;;9.60;5.90;;;11.30;99.90;;;-141.84;76.66;17812.47;5110720;28;20217;-55
2022/05/10 03:09:48;;;;;;;6.17;5.57;;;11.30;99.90;;;-141.84;77.02;17753.56;5110354;28;20316;-57
2022/05/10 03:12:16;;;;;;;7.93;5.90;;;11.20;99.90;;;-141.84;77.42;17796.22;5110395;28;20230;-57
2022/05/10 03:14:45;;;;;;;10.73;6.30;;;11.20;99.90;;;-141.84;76.81;17804.34;5110217;28;20314;-55
2022/05/10 03:17:14;;;;;;;8.13;6.33;;;11.20;99.90;;;-141.84;77.31;17773.88;5110614;28;20298;-55
2022/05/10 03:19:43;;;;;;;7.53;6.27;;;11.20;99.90;;;-141.84;77.87;17804.34;5110880;28;20200;-52
2022/05/10 03:22:12;;;;;;;7.13;5.97;;;11.20;99.90;;;-141.84;77.81;17769.81;5109809;28;20250;-53
2022/05/10 03:24:40;;;;;;;8.07;6.07;;;11.20;99.90;;;-141.84;78.50;17792.16;5109963;28;20247;-55
2022/05/10 03:27:10;;;;;;;6.90;6.20;;;11.20;99.90;;;-141.84;78.49;17749.50;5110257;28;20265;-53
2022/05/10 03:29:40;;;;;;;8.77;6.47;;;11.20;99.90;;;-141.84;77.85;17743.41;5110135;28;20322;-54
2022/05/10 03:32:10;;;;;;;10.43;7.20;;;11.20;99.90;;;-141.84;77.45;17765.75;5110359;28;20290;-55
2022/05/10 03:34:54;;;;;;;7.57;6.27;;;11.20;99.90;;;-141.84;78.25;17779.97;5110396;28;20192;-53
2022/05/10 03:37:22;;;;;;;7.03;6.20;;;11.30;99.90;;;-141.84;78.45;17763.72;5110636;28;20623;-53
2022/05/10 03:39:50;;;;;;;8.37;6.47;;;11.30;99.90;;;-141.84;78.12;17741.38;5112745;28;20689;-52
2022/05/10 03:42:19;;;;;;;8.17;6.40;;;11.30;99.90;;;-141.84;77.74;17741.38;5114044;28;20227;-56
2022/05/10 03:44:49;;;;;;;8.13;6.87;;;11.40;99.90;;;-141.84;77.95;17737.31;5114086;28;20310;-56
2022/05/10 03:47:18;;;;;;;8.40;6.63;;;11.40;99.90;;;-141.84;77.89;17717.00;5114202;28;20300;-55
2022/05/10 03:49:48;;;;;;;9.93;6.93;;;11.40;99.90;;;-141.84;77.61;17765.75;5113981;28;20636;-54
2022/05/10 03:52:17;;;;;;;8.77;6.57;;;11.40;99.90;;;-141.84;76.82;17765.75;5114466;28;20298;-53
2022/05/10 03:54:45;;;;;;;10.70;6.93;;;11.50;99.90;;;-141.84;75.72;17800.28;5113397;28;20227;-55
2022/05/10 03:57:14;;;;;;;9.97;6.47;;;11.60;99.90;;;-141.84;75.76;17806.38;5113700;28;20241;-54
2022/05/10 03:59:42;;;;;;;7.90;6.63;;;11.70;99.90;;;-141.84;76.78;17745.44;5113676;28;20223;-54
2022/05/10 04:02:12;;;;;;;9.40;7.23;;;11.70;99.90;;;-141.84;76.34;17794.19;5113591;28;20310;-55
2022/05/10 04:04:41;;;;;;;7.93;6.33;;;11.70;99.90;;;-141.84;76.86;17769.81;5114245;28;20258;-55
2022/05/10 04:07:11;;;;;;;10.37;6.60;;;11.70;99.90;;;-141.84;76.70;17777.94;5113219;28;20262;-55
2022/05/10 04:09:39;;;;;;;8.07;7.10;;;11.80;99.90;;;-141.84;76.23;17788.09;5113281;28;20307;-54
2022/05/10 04:12:08;;;;;;;7.37;6.67;;;11.80;99.90;;;-141.84;76.09;17769.81;5113423;28;20247;-54
2022/05/10 04:14:36;;;;;;;9.27;6.73;;;11.90;99.90;;;-141.84;75.93;17753.56;5112821;28;20219;-57
2022/05/10 04:17:05;;;;;;;9.47;6.47;;;11.90;99.90;;;-141.84;76.29;17773.88;5113502;28;20286;-58
2022/05/10 04:19:33;;;;;;;7.83;7.00;;;12.00;99.90;;;-141.84;76.37;17777.94;5112553;28;20210;-56
2022/05/10 04:22:01;;;;;;;9.10;6.70;;;12.00;99.90;;;-141.84;76.14;17773.88;5113182;28;20249;-58
2022/05/10 04:24:31;;;;;;;10.63;7.13;;;12.00;99.90;;;-141.84;75.92;17790.13;5112936;28;20302;-55
2022/05/10 04:27:01;;;;;;;9.80;7.27;;;12.00;99.90;;;-141.84;75.63;17786.06;5113046;28;20679;-53
2022/05/10 04:29:29;;;;;;;7.20;6.50;;;12.10;99.90;;;-141.84;75.87;17790.13;5112836;28;20257;-52
2022/05/10 04:31:57;;;;;;;7.73;6.87;;;12.10;99.90;;;-141.84;75.49;17786.06;5112780;28;20725;-57
2022/05/10 04:34:25;;;;;;;8.03;7.00;;;12.20;99.90;;;-141.84;75.58;17798.25;5113579;28;20203;-53
2022/05/10 04:36:53;;;;;;;8.10;6.90;;;12.20;99.90;;;-141.84;75.47;17810.44;5113120;28;20238;-57
2022/05/10 04:39:21;;;;;;;9.40;7.33;;;12.30;99.90;;;-141.84;75.10;17786.06;5112686;28;20250;-55
2022/05/10 04:41:53;;;;;;;8.27;6.97;;;12.40;99.90;;;-141.84;74.75;17824.66;5112724;28;20223;-58
2022/05/10 04:44:21;;;;;;;8.47;7.43;;;12.40;99.90;;;-141.84;74.08;17814.50;5112609;28;20612;-56
2022/05/10 04:46:49;;;;;;;8.27;6.90;;;12.50;99.90;;;-141.84;73.68;17840.91;5113286;28;20642;-54
2022/05/10 04:49:17;;;;;;;8.13;7.20;;;12.70;99.90;;;-141.84;73.52;17844.97;5112714;28;20242;-58
2022/05/10 04:51:46;;;;;;;9.50;7.70;;;12.80;99.90;;;-141.84;72.71;17863.25;5111593;28;20613;-52
2022/05/10 04:54:13;;;;;;;9.23;6.47;;;13.00;99.90;;;-141.84;71.82;17897.78;5112415;28;20319;-54
2022/05/10 04:56:41;;;;;;;10.60;6.73;;;13.40;99.90;;;-141.84;63.68;18078.59;5112287;28;20225;-55
2022/05/10 04:59:11;;;;;;;8.05;6.45;;;14.40;99.90;;;-141.84;56.19;18363.00;5112216;28;22534;-55
2022/05/10 05:01:39;;;;;;;9.52;6.55;;;15.60;99.90;;;-141.84;50.16;18562.09;5113151;28;20306;-55
2022/05/10 05:04:08;;;;;;;12.52;7.05;;;16.70;99.90;;;-141.84;47.93;18734.81;5112602;28;20227;-56
2022/05/10 05:06:39;;;;;;;7.75;6.95;;;17.50;99.90;;;-141.84;45.37;18897.34;5112005;28;20226;-55
2022/05/10 05:09:08;;;;;;;8.85;7.35;;;17.90;99.90;;;-141.84;44.22;18935.97;5111862;28;20246;-56
2022/05/10 05:11:36;;;;;;;7.82;6.47;;;18.20;99.90;;;-141.84;44.51;18933.94;5112115;28;20233;-52
2022/05/10 05:14:04;;;;;;;8.38;6.78;;;18.40;99.90;;;-141.84;46.38;18812.00;5112275;28;20206;-53
2022/05/10 05:16:33;;;;;;;9.52;6.80;;;18.10;99.90;;;-141.84;48.36;18702.28;5111956;28;20293;-54
2022/05/10 05:19:01;;;;;;;7.63;6.80;;;17.70;99.90;;;-141.84;50.53;18619.00;5111788;28;20724;-56
2022/05/10 05:21:29;;;;;;;8.18;7.05;;;17.40;99.90;;;-141.84;52.78;18497.09;5111720;28;20330;-53
2022/05/10 05:23:57;;;;;;;8.52;6.95;;;17.00;99.90;;;-141.84;54.15;18440.22;5111246;28;20710;-55
2022/05/10 05:26:26;;;;;;;7.88;7.07;;;16.70;99.90;;;-141.84;56.03;18397.53;5111381;28;20243;-52
2022/05/10 05:28:54;;;;;;;8.80;6.78;;;16.50;99.90;;;-141.84;55.59;18407.69;5111964;28;20203;-53
2022/05/10 05:31:23;;;;;;;8.68;7.07;;;16.50;99.90;;;-141.84;56.34;18393.47;5111988;28;20761;-55
2022/05/10 05:33:54;;;;;;;7.95;7.22;;;16.50;99.90;;;-141.84;56.48;18367.06;5111535;28;20306;-56
2022/05/10 05:36:22;;;;;;;7.13;6.43;;;16.50;99.90;;;-141.84;55.66;18385.34;5111631;28;20637;-53
2022/05/10 05:38:50;;;;;;;7.57;6.75;;;16.70;99.90;;;-141.84;55.29;18401.59;5111447;28;20226;-53
2022/05/10 05:41:18;;;;;;;7.55;6.40;;;16.90;99.90;;;-141.84;55.55;18399.56;5111185;28;20268;-54
2022/05/10 05:43:47;;;;;;;7.97;6.40;;;17.10;99.90;;;-141.84;54.56;18436.16;5112230;28;20238;-55
2022/05/10 05:46:15;;;;;;;7.95;6.97;;;17.30;99.90;;;-141.84;53.66;18464.59;5111653;28;20227;-56
2022/05/10 05:48:43;;;;;;;7.97;7.18;;;17.40;99.90;;;-141.84;53.39;18466.63;5091156;28;20231;-54
2022/05/10 05:51:13;;;;;;;9.95;6.70;;;17.40;99.90;;;-141.84;54.08;18458.50;5090524;28;20251;-52
2022/05/10 05:53:40;;;;;;;7.90;7.10;;;17.50;99.90;;;-141.84;53.27;18486.94;5090714;28;20658;-53
2022/05/10 05:56:11;;;;;;;9.38;7.43;;;17.40;99.90;;;-141.84;53.16;18484.91;5090474;28;20291;-56
2022/05/10 05:58:40;;;;;;;8.65;7.45;;;17.60;99.90;;;-141.84;52.29;18533.66;5091499;28;20271;-54
2022/05/10 06:01:13;;;;;;;7.97;6.80;;;17.70;99.90;;;-141.84;52.10;18515.38;5090420;28;20332;-51
2022/05/10 06:03:43;;;;;;;7.15;6.47;;;17.80;99.90;;;-141.84;52.84;18482.88;5090596;28;20220;-54
2022/05/10 06:06:13;;;;;;;7.00;6.40;;;17.80;99.90;;;-141.84;52.40;18513.34;5092792;28;20255;-54
2022/05/10 06:08:44;;;;;;;7.55;6.25;;;17.80;99.90;;;-141.84;52.11;18525.53;5110137;28;20223;-54
2022/05/10 06:11:13;;;;;;;7.72;6.68;;;18.00;99.90;;;-141.84;52.13;18560.06;5110419;28;20222;-52
2022/05/10 06:13:41;;;;;;;7.13;6.30;;;18.00;99.90;;;-141.84;52.52;18519.44;5111732;28;20237;-54
2022/05/10 06:16:10;;;;;;;7.60;6.80;;;18.10;99.90;;;-141.84;52.06;18517.41;5110404;28;20239;-56
2022/05/10 06:18:38;;;;;;;6.80;5.82;;;18.30;99.90;;;-141.84;52.58;18562.09;5110832;28;20234;-56
2022/05/10 06:21:06;;;;;;;7.07;6.38;;;18.30;99.90;;;-141.84;52.43;18509.28;5110939;28;20322;-54
2022/05/10 06:23:35;;;;;;;8.27;7.00;;;18.20;99.90;;;-141.84;51.73;18497.09;5110492;28;20229;-54
2022/05/10 06:26:03;;;;;;;7.82;6.43;;;18.20;99.90;;;-141.84;52.35;18488.97;5110539;28;20219;-54
2022/05/10 06:28:32;;;;;;;7.40;6.53;;;18.10;99.90;;;-141.84;53.00;18501.16;5111544;28;20615;-56
2022/05/10 06:30:59;;;;;;;7.25;6.10;;;18.10;99.90;;;-141.84;52.50;18523.50;5110603;28;20223;-53
2022/05/10 06:33:28;;;;;;;7.20;6.50;;;18.10;99.90;;;-141.84;53.03;18468.66;5110810;28;20230;-56
2022/05/10 06:35:56;;;;;;;9.85;7.07;;;18.20;99.90;;;-141.84;53.22;18533.66;5110903;28;20222;-53
2022/05/10 06:38:27;;;;;;;7.50;6.90;;;18.10;99.90;;;-141.84;53.31;18533.66;5110515;28;20254;-54
2022/05/10 06:41:00;;;;;;;6.72;6.10;;;18.10;99.90;;;-141.84;52.84;18558.03;5110591;28;20225;-55
2022/05/10 06:43:35;;;;;;;8.23;6.97;;;18.30;99.90;;;-141.84;51.68;18562.09;5111449;28;20180;-56
2022/05/10 06:46:09;;;;;;;6.55;5.95;;;18.50;99.90;;;-141.84;52.38;18574.28;5110460;28;20219;-53
2022/05/10 06:48:37;;;;;;;7.07;6.40;;;18.70;99.90;;;-141.84;51.82;18602.75;5110546;28;20302;-53
2022/05/10 06:51:06;;;;;;;8.77;6.60;;;18.90;99.90;;;-141.84;50.92;18639.31;5110511;28;20229;-55
2022/05/10 06:53:36;;;;;;;7.22;6.55;;;19.00;99.90;;;-141.84;50.43;18600.72;5110220;28;20253;-55
2022/05/10 06:56:08;;;;;;;7.82;6.15;;;19.00;99.90;;;-141.84;50.92;18604.78;5110393;28;20206;-54
2022/05/10 06:58:38;;;;;;;7.20;6.28;;;19.00;99.90;;;-141.84;50.96;18606.81;5110807;28;20179;-51
2022/05/10 07:01:11;;;;;;;7.72;6.93;;;19.10;99.90;;;-141.84;50.99;18568.19;5110441;28;20226;-53
2022/05/10 07:03:42;;;;;;;8.15;6.88;;;19.10;99.90;;;-141.84;50.59;18657.59;5110395;28;20265;-55
2022/05/10 07:06:13;;;;;;;7.53;6.72;;;19.10;99.90;;;-141.84;51.52;18608.84;5110374;28;20223;-53
2022/05/10 07:08:41;;;;;;;8.23;6.45;;;19.10;99.90;;;-141.84;51.33;18604.78;5109594;28;20250;-54
2022/05/10 07:11:11;;;;;;;7.63;6.22;;;19.10;99.90;;;-141.84;50.47;18623.06;5110226;28;20204;-54
2022/05/10 07:13:40;;;;;;;9.73;6.25;;;19.20;99.90;;;-141.84;50.66;18616.97;5111562;28;20229;-54
2022/05/10 07:16:10;;;;;;;9.40;6.05;;;19.30;99.90;;;-141.84;50.59;18645.41;5113719;28;20265;-53
2022/05/10 07:18:38;;;;;;;8.52;6.25;;;19.30;99.90;;;-141.84;49.71;18663.69;5112129;28;20288;-52
2022/05/10 07:21:07;;;;;;;8.50;6.13;;;19.30;99.90;;;-141.84;50.90;18623.06;5094181;28;20254;-54
2022/05/10 07:23:35;;;;;;;7.30;5.75;;;19.30;99.90;;;-141.84;50.22;18667.75;5093411;28;20303;-55
2022/05/10 07:26:05;;;;;;;9.27;6.28;;;19.50;99.90;;;-141.84;49.21;18679.94;5093699;28;20290;-54
2022/05/10 07:28:34;;;;;;;6.63;5.90;;;19.70;99.90;;;-141.84;48.54;18720.59;5094527;28;20200;-53
2022/05/10 07:31:02;;;;;;;9.20;5.85;;;19.90;99.90;;;-141.84;48.33;18728.72;5093397;28;20601;-54
2022/05/10 07:33:31;;;;;;;7.45;5.93;;;19.90;99.90;;;-141.84;48.12;18753.09;5093362;28;20711;-54
2022/05/10 07:38:46;;;;;;;8.88;7.93;;;20.00;99.90;;;-141.84;47.50;18761.22;5093554;28;20318;-54
2022/05/10 07:41:14;;;;;;;7.88;6.30;;;20.00;99.90;;;-141.84;48.65;18728.72;5093297;28;20246;-54
2022/05/10 07:43:43;;;;;;;9.27;5.97;;;20.00;99.90;;;-141.84;49.24;18742.94;5094422;28;20200;-53
2022/05/10 07:46:11;;;;;;;8.65;6.55;;;19.90;99.90;;;-141.84;49.14;18677.91;5093457;28;20626;-55
2022/05/10 07:48:39;;;;;;;7.35;6.28;;;19.90;99.90;;;-141.84;49.83;18643.38;5112965;28;20770;-54
2022/05/10 07:51:08;;;;;;;8.07;6.10;;;19.80;99.90;;;-141.84;49.55;18681.97;5113744;28;20762;-53
2022/05/10 07:53:36;;;;;;;8.40;6.43;;;19.90;99.90;;;-141.84;49.52;18686.03;5113705;28;20222;-55
2022/05/10 07:56:05;;;;;;;7.75;6.40;;;19.80;99.90;;;-141.84;50.13;18643.38;5113377;28;20206;-53
2022/05/10 07:58:55;;;;;;;10.80;7.10;;;19.70;99.90;;;-141.84;50.33;18675.88;5114026;28;20184;-56
2022/05/10 08:01:24;;;;;;;7.75;6.15;;;19.80;99.90;;;-141.84;49.94;18710.44;5114089;28;20659;-53
2022/05/10 08:03:53;;;;;;;10.13;5.90;;;19.90;99.90;;;-141.84;49.78;18706.38;5112603;28;20223;-53
2022/05/10 08:06:21;;;;;;;6.00;5.40;;;20.00;99.90;;;-141.84;49.05;18753.09;5113674;28;20648;-53
2022/05/10 08:08:49;;;;;;;8.45;5.95;;;20.20;99.90;;;-141.84;47.99;18714.50;5113002;28;20310;-54
2022/05/10 08:11:18;;;;;;;6.30;5.57;;;20.30;99.90;;;-141.84;48.25;18787.63;5113620;28;20231;-53
2022/05/10 08:13:46;;;;;;;7.43;5.82;;;20.50;99.90;;;-141.84;47.36;18818.09;5113923;28;20529;-54
2022/05/10 08:16:17;;;;;;;11.27;5.85;;;20.70;99.90;;;-141.84;47.53;18822.19;5100226;28;20303;-55
2022/05/10 08:18:48;;;;;;;8.57;5.93;;;20.80;99.90;;;-141.84;47.87;18826.25;5093117;28;20307;-53
2022/05/10 08:21:17;;;;;;;9.75;5.82;;;20.90;99.90;;;-141.84;47.50;18834.38;5093236;28;20711;-51
2022/05/10 08:23:47;;;;;;;9.13;5.60;;;21.00;99.90;;;-141.84;46.39;18850.63;5106938;28;20314;-52
2022/05/10 08:26:15;;;;;;;7.88;5.90;;;21.10;99.90;;;-141.84;46.70;18856.72;5112468;28;20246;-54
2022/05/10 08:28:43;;;;;;;6.45;5.38;;;21.10;99.90;;;-141.84;46.57;18860.78;5113962;28;20276;-55
2022/05/10 08:31:11;;;;;;;6.95;5.95;;;21.30;99.90;;;-141.84;45.97;18891.25;5104947;28;20730;-56
2022/05/10 08:33:44;;;;;;;11.57;6.10;;;21.30;99.90;;;-141.84;46.13;18903.44;5113548;28;20331;-53
2022/05/10 08:36:12;;;;;;;7.35;5.70;;;21.30;99.90;;;-141.84;46.41;18877.03;5095390;28;20272;-55
2022/05/10 08:38:40;;;;;;;9.38;5.97;;;21.40;99.90;;;-141.84;46.13;18893.28;5104039;28;20241;-52
2022/05/10 08:41:14;;;;;;;6.97;5.60;;;21.40;99.90;;;-141.84;46.24;18897.34;5113878;28;20203;-53
2022/05/10 08:43:48;;;;;;;9.05;4.80;;;21.50;99.90;;;-141.84;46.48;18891.25;5113149;28;20665;-51
2022/05/10 08:46:19;;;;;;;6.15;5.43;;;21.40;99.90;;;-141.84;46.81;18889.22;5093103;28;20231;-53
2022/05/10 08:48:57;;;;;;;9.57;4.97;;;21.40;99.90;;;-141.84;47.19;18872.97;5092768;28;20769;-54
2022/05/10 08:51:25;;;;;;;8.75;5.50;;;21.40;99.90;;;-141.84;46.62;18909.53;5093039;28;20255;-53
2022/05/10 08:53:53;;;;;;;8.20;5.60;;;21.50;99.90;;;-141.84;45.57;18933.94;5105512;28;20467;-53
2022/05/10 08:56:27;;;;;;;5.75;5.13;;;21.60;99.90;;;-141.84;45.17;18927.84;5112994;28;20570;-56
2022/05/10 08:59:10;;;;;;;5.00;4.53;;;21.60;99.90;;;-141.84;44.68;18960.34;5113805;28;20180;-53
2022/05/10 09:01:56;;;;;;;6.38;4.53;;;21.70;99.90;;;-141.84;44.54;18940.03;5112966;28;20662;-54
2022/05/10 09:04:46;;;;;;;7.85;4.80;;;21.70;99.90;;;-141.84;44.19;18984.72;5113119;28;20272;-55
2022/05/10 09:07:29;;;;;;;4.82;4.32;;;21.70;99.90;;;-141.84;42.96;19049.75;5113530;28;20310;-53
2022/05/10 09:10:04;;;;;;;7.70;4.30;;;21.80;99.90;;;-141.84;43.78;19003.00;5112763;28;20222;-56
2022/05/10 09:12:45;;;;;;;5.38;4.38;;;21.80;99.90;;;-141.84;44.40;19013.16;5112617;28;20243;-53
2022/05/10 09:15:15;;;;;;;6.38;4.65;;;21.80;99.90;;;-141.84;43.85;19003.00;5112689;28;20594;-51
2022/05/10 09:17:43;;;;;;;5.35;4.45;;;21.90;99.90;;;-141.84;43.75;19011.13;5112918;28;20223;-52
2022/05/10 09:20:14;;;;;;;5.45;4.30;;;22.00;99.90;;;-141.84;41.94;19092.41;5113148;28;20242;-53
2022/05/10 09:23:14;;;;;;;6.50;4.63;;;22.10;99.90;;;-141.84;42.39;19074.13;5111963;28;20287;-55
2022/05/10 09:25:45;;;;;;;5.72;4.32;;;22.10;99.90;;;-141.84;42.90;19037.56;5112871;28;20782;-54
2022/05/10 09:28:29;;;;;;;5.70;4.60;;;22.10;99.90;;;-141.84;42.80;19074.13;5112739;28;20231;-54
2022/05/10 09:34:46;;;;;;;7.60;4.07;;;22.10;99.90;;;-141.84;42.44;19086.31;5112146;28;20219;-53
2022/05/10 09:37:24;;;;;;;7.20;4.60;;;22.10;99.90;;;-141.84;41.83;19149.31;5112237;28;20310;-62
2022/05/10 09:40:12;;;;;;;7.38;3.90;;;22.10;99.90;;;-141.84;40.08;19179.78;5112341;28;20625;-61
2022/05/10 09:42:43;;;;;;;6.53;3.85;;;22.20;99.90;;;-141.84;40.72;19165.56;5111985;28;20313;-61
2022/05/10 09:45:18;;;;;;;3.78;3.40;;;22.30;99.90;;;-141.84;41.00;19153.38;5111800;28;20227;-60
2022/05/10 09:47:59;;;;;;;4.00;3.55;;;22.30;99.90;;;-141.84;40.17;19222.47;5112461;28;20256;-60
2022/05/10 09:50:32;;;;;;;7.43;3.30;;;22.40;99.90;;;-141.84;39.38;19220.44;5112302;28;20233;-60
2022/05/10 09:53:22;;;;;;;4.00;3.30;;;22.50;99.90;;;-141.84;38.32;19301.72;5112414;28;20202;-61
2022/05/10 09:56:00;;;;;;;5.18;3.78;;;22.40;99.90;;;-141.84;38.14;19283.44;5111456;28;20229;-60
2022/05/10 09:58:32;;;;;;;3.55;3.22;;;22.40;99.90;;;-141.84;39.12;19257.00;5112392;28;20219;-61
2022/05/10 10:01:04;;;;;;;5.20;3.53;;;22.50;99.90;;;-141.84;37.68;19303.75;5111945;28;20310;-61
2022/05/10 10:03:37;;;;;;;4.05;3.25;;;22.60;99.90;;;-141.84;36.88;19389.09;5111917;28;20261;-61
2022/05/10 10:06:26;;;;;;;4.60;3.80;;;22.70;99.90;;;-141.84;37.99;19358.63;5112208;28;20218;-61
2022/05/10 10:08:56;;;;;;;3.85;3.47;;;22.70;99.90;;;-141.84;37.81;19358.63;5112078;28;20235;-60
2022/05/10 10:11:32;;;;;;;5.80;3.47;;;22.90;99.90;;;-141.84;37.95;19378.94;5111668;28;20184;-60
2022/05/10 10:14:03;;;;;;;3.53;3.20;;;23.00;99.90;;;-141.84;37.97;19372.84;5112583;28;20191;-60
2022/05/10 10:16:36;;;;;;;3.92;3.47;;;23.00;99.90;;;-141.84;37.25;19407.38;5111247;28;20223;-62
2022/05/10 10:19:27;;;;;;;5.13;3.25;;;23.00;99.90;;;-141.84;36.41;19435.84;5112231;28;20230;-60
2022/05/10 10:22:05;;;;;;;3.13;2.92;;;23.10;99.90;;;-141.84;36.56;19450.06;5111325;28;20280;-62
2022/05/10 10:24:39;;;;;;;3.55;3.25;;;23.10;99.90;;;-141.84;36.61;19466.31;5111452;28;20302;-62
2022/05/10 10:27:18;;;;;;;3.65;3.35;;;23.20;99.90;;;-141.84;36.64;19431.78;5111130;28;20223;-62
2022/05/10 10:29:52;;;;;;;4.63;3.75;;;23.20;99.90;;;-141.84;36.48;19470.38;5111275;28;20226;-61
2022/05/10 10:32:28;;;;;;;4.68;3.22;;;23.20;99.90;;;-141.84;35.81;19466.31;5111340;28;20265;-61
2022/05/10 10:35:09;;;;;;;3.42;2.80;;;23.10;99.90;;;-141.84;35.12;19521.19;5111667;28;20689;-60